ADDS METAR Data INFO
IDs: Format: Raw Decoded Include TAF

Data at: 0509 UTC 23 May 2017

KLND 230453Z AUTO 25010KT 10SM CLR 06/01 A3030 RMK AO2 SLP231 T00560006
KLND 230353Z AUTO 26009KT 10SM CLR 06/01 A3029 RMK AO2 SLP227 T00610011
KLND 230253Z AUTO 25010KT 10SM CLR 06/02 A3027 RMK AO2 SLP232 60000 T00610017 56008
KLND 230153Z AUTO 26012KT 10SM SCT090 07/02 A3027 RMK AO2 SLP237 T00720022
KLND 230053Z AUTO 27011KT 10SM FEW047 BKN055 OVC070 07/02 A3028 RMK AO2 RAB37E51 SLP247 P0000 T00720022
KLND 222353Z AUTO 28015KT 10SM FEW042 OVC055 07/03 A3030 RMK AO2 RAE2256 SLP254 P0000 60011 T00670028 10167 20056 56007
KLND 222253Z AUTO 28012KT 10SM -RA FEW032 BKN039 OVC055 07/03 A3030 RMK AO2 SLP254 P0004 T00670028
KLND 222203Z AUTO 23011KT 10SM -RA FEW022 BKN045 OVC060 06/03 A3031 RMK AO2 P0001 T00560033
KLND 222153Z AUTO 21010KT 5SM -RA BR BKN022 BKN030 OVC035 06/04 A3031 RMK AO2 SLP260 P0005 T00560039
KLND 222111Z AUTO 22006KT 4SM -RA BR FEW013 OVC020 06/04 A3032 RMK AO2 P0003 T00560039
KLND 222053Z AUTO 21003KT 2 1/2SM -RA BR BKN017 BKN022 OVC029 06/04 A3032 RMK AO2 PK WND 03029/1957 SLP263 P0002 60002 T00560039 53045
KLND 222008Z AUTO 03016G28KT 6SM -RA BKN020 BKN026 OVC042 06/03 A3030 RMK AO2 PK WND 03029/1957 PRESRR P0000 T00610033
KLND 221953Z AUTO 02022G36KT 10SM -RA FEW020 OVC042 08/03 A3027 RMK AO2 PK WND 03036/1943 RAB11E25B42 PRESRR SLP238 P0000 T00780033
KLND 221853Z AUTO 05016G24KT 10SM BKN055 OVC085 13/04 A3020 RMK AO2 SLP198 T01330039
KLND 221753Z AUTO 08011KT 10SM BKN095 16/04 A3017 RMK AO2 WSHFT 1720 SLP179 T01610039 10167 20039 56008
KLND 221740Z AUTO 06013KT 10SM OVC090 16/03 A3017 RMK AO2 WSHFT 1720 T01610033
KLND 221653Z AUTO 01008KT 10SM OVC100 16/M02 A3017 RMK AO2 SLP180 T01611017
KLND 221553Z AUTO 34005KT 10SM BKN110 16/01 A3019 RMK AO2 SLP187 T01560006
KLND 221453Z AUTO 14003KT 10SM CLR 12/04 A3020 RMK AO2 SLP198 T01170044 55002
KLND 221353Z AUTO 16003KT 10SM CLR 08/03 A3019 RMK AO2 SLP196 T00830028
KLND 221253Z AUTO 16003KT 10SM CLR 04/01 A3020 RMK AO2 SLP206 T00440006
KLND 221153Z AUTO 23004KT 10SM CLR 05/00 A3020 RMK AO2 SLP202 T00500000 10083 20028 56005
KLND 221053Z AUTO 25006KT 10SM CLR 06/M01 A3021 RMK AO2 SLP207 T00561006
KLND 220953Z AUTO 33006KT 10SM CLR 05/01 A3021 RMK AO2 SLP206 T00500006
KLND 220853Z AUTO 29004KT 10SM CLR 06/01 A3022 RMK AO2 SLP211 T00610006 58009
KLND 220753Z AUTO 00000KT 10SM CLR 06/01 A3023 RMK AO2 SLP218 T00610011
KLND 220653Z AUTO 18005KT 10SM CLR 07/01 A3025 RMK AO2 SLP223 T00720011 401560050
KLND 220553Z AUTO 22005KT 10SM FEW070 09/01 A3025 RMK AO2 SLP225 T00890011 10150 20078 50006
KLND 220453Z AUTO 24009KT 10SM BKN070 09/02 A3026 RMK AO2 SLP230 T00940022
KLND 220353Z AUTO 24011KT 10SM FEW085 09/03 A3024 RMK AO2 SLP222 T00890033
KLND 220253Z AUTO 24011KT 10SM CLR 09/03 A3023 RMK AO2 SLP218 T00940033 53006
KLND 220153Z AUTO 21003KT 10SM BKN075 12/02 A3022 RMK AO2 SLP212 T01220017
KLND 220053Z AUTO 08006KT 10SM SCT080 OVC100 14/03 A3021 RMK AO2 SLP204 T01390033
KLND 212353Z AUTO 05004KT 10SM SCT065 OVC090 14/03 A3021 RMK AO2 SLP203 60000 T01440028 10156 20083 55005
KLND 212253Z AUTO 25003KT 10SM SCT065 13/02 A3021 RMK AO2 SLP203 T01330017
KLND 212153Z AUTO VRB04KT 10SM CLR 15/02 A3021 RMK AO2 LTG DSNT SW SLP202 T01500022
KLND 212053Z AUTO VRB04KT 10SM BKN042 13/02 A3023 RMK AO2 SLP212 60000 T01280017 56014
KLND 211953Z AUTO VRB06KT 10SM OVC055 11/03 A3025 RMK AO2 SLP223 T01110028
KLND 211853Z AUTO 22005KT 10SM OVC049 10/04 A3026 RMK AO2 RAB29E31 SLP230 P0000 T01000039
KLND 211753Z AUTO 27006KT 10SM OVC040 08/04 A3028 RMK AO2 SLP239 60000 T00830044 10083 20061 51013


Page loaded:  05:09 UTC  |   10:09 PM Pacific  |   11:09 PM Mountain  |   12:09 AM Central  |   01:09 AM Eastern

 

ADVISORIES

FORECASTS

FORECASTS

OBSERVATIONS

USER TOOLS

ABOUT US